createdAt,value
2023-06-24T00:06:09.744Z,10.57
2023-06-24T00:16:33.722Z,12.02
2023-06-24T00:26:55.616Z,12.52
2023-06-24T00:37:18.107Z,13.20
2023-06-24T00:47:50.655Z,13.70
2023-06-24T00:58:17.034Z,16.55
2023-06-24T01:08:39.697Z,19.65
2023-06-24T01:19:10.270Z,19.63
2023-06-24T01:29:39.113Z,19.05
2023-06-24T01:40:10.495Z,19.10
2023-06-24T01:50:35.461Z,20.15
2023-06-24T02:01:22.411Z,20.33
2023-06-24T02:11:47.620Z,20.17
2023-06-24T02:22:11.007Z,19.98
2023-06-24T02:32:34.016Z,20.50
2023-06-24T02:42:55.462Z,21.73
2023-06-24T02:53:18.745Z,17.90
2023-06-24T03:03:43.143Z,18.30
2023-06-24T03:24:46.211Z,15.07
2023-06-24T03:35:10.203Z,13.63
2023-06-24T03:45:33.281Z,14.65
2023-06-24T03:55:56.786Z,13.90
2023-06-24T04:06:18.224Z,11.57
2023-06-24T04:16:42.443Z,12.93
2023-06-24T04:27:04.236Z,13.25
2023-06-24T04:37:27.335Z,14.30
2023-06-24T04:47:49.943Z,12.15
2023-06-24T04:58:12.961Z,12.00
2023-06-24T05:08:36.741Z,11.68
2023-06-24T05:18:59.939Z,10.60
2023-06-24T05:29:21.487Z,11.40
2023-06-24T05:39:45.402Z,10.05
2023-06-24T05:50:07.255Z,9.85
2023-06-24T06:00:34.442Z,7.78
2023-06-24T06:11:04.556Z,8.15
2023-06-24T06:21:27.855Z,7.38
2023-06-24T06:31:51.425Z,7.13
2023-06-24T06:42:15.684Z,6.97
2023-06-24T06:52:37.363Z,7.07
2023-06-24T07:03:00.133Z,6.97
2023-06-24T07:13:21.472Z,7.28
2023-06-24T07:23:44.364Z,5.40
2023-06-24T07:34:07.250Z,5.28
2023-06-24T07:44:30.152Z,5.90
2023-06-24T07:54:51.820Z,4.40
2023-06-24T08:05:14.888Z,4.57
2023-06-24T08:15:42.897Z,4.23
2023-06-24T08:26:16.580Z,3.80
2023-06-24T08:36:57.213Z,4.50
2023-06-24T08:47:20.512Z,4.60
2023-06-24T08:57:42.199Z,4.20
2023-06-24T09:08:04.887Z,4.10
2023-06-24T09:18:40.473Z,4.43
2023-06-24T09:29:03.821Z,3.67
2023-06-24T09:39:30.695Z,3.70
2023-06-24T09:49:58.029Z,4.30
2023-06-24T10:00:20.928Z,3.95
2023-06-24T10:10:44.045Z,3.63
2023-06-24T10:21:05.536Z,4.07
2023-06-24T10:31:52.599Z,3.45
2023-06-24T10:42:34.242Z,3.67
2023-06-24T10:52:58.404Z,3.42
2023-06-24T11:03:21.423Z,3.45
2023-06-24T11:13:44.770Z,2.97
2023-06-24T11:24:08.444Z,3.63
2023-06-24T11:34:31.138Z,4.40
2023-06-24T11:44:53.410Z,3.80
2023-06-24T11:55:18.282Z,4.53
2023-06-24T12:05:45.572Z,3.30
2023-06-24T12:16:09.212Z,3.58
2023-06-24T12:26:30.484Z,3.90
2023-06-24T12:36:54.529Z,3.63
2023-06-24T12:47:19.075Z,3.30
2023-06-24T12:57:42.045Z,3.88
2023-06-24T13:08:04.494Z,3.47
2023-06-24T13:18:27.917Z,4.00
2023-06-24T13:28:50.458Z,4.07
2023-06-24T13:39:13.652Z,3.55
2023-06-24T13:49:38.564Z,3.90
2023-06-24T14:00:01.593Z,3.60
2023-06-24T14:10:23.461Z,4.07
2023-06-24T14:20:48.455Z,4.30
2023-06-24T14:31:09.831Z,3.70
2023-06-24T14:41:32.763Z,3.58
2023-06-24T14:51:54.522Z,3.75
2023-06-24T15:02:18.543Z,3.95
2023-06-24T15:12:41.226Z,3.63
2023-06-24T15:23:07.567Z,4.10
2023-06-24T15:33:30.530Z,4.32
2023-06-24T15:44:05.889Z,3.90
2023-06-24T15:54:27.366Z,4.20
2023-06-24T16:04:52.609Z,4.57
2023-06-24T16:15:14.964Z,4.55
2023-06-24T16:25:37.787Z,4.07
2023-06-24T16:35:59.544Z,4.18
2023-06-24T16:46:23.358Z,4.68
2023-06-24T16:56:45.484Z,3.83
2023-06-24T17:07:08.264Z,4.10
2023-06-24T17:17:29.612Z,4.40
2023-06-24T17:27:53.696Z,3.88
2023-06-24T17:38:15.058Z,3.90
2023-06-24T17:58:59.034Z,3.50
2023-06-24T18:09:21.473Z,4.10
2023-06-24T18:19:45.827Z,4.43
2023-06-24T18:30:08.519Z,3.90
2023-06-24T18:40:31.243Z,4.55
2023-06-24T18:50:54.755Z,4.05
2023-06-24T19:01:19.763Z,4.10
2023-06-24T19:11:41.294Z,4.22
2023-06-24T19:22:06.374Z,4.72
2023-06-24T19:32:29.501Z,4.03
2023-06-24T19:42:52.341Z,4.60
2023-06-24T19:53:14.025Z,4.18
2023-06-24T20:03:36.558Z,4.13
2023-06-24T20:14:00.012Z,4.68
2023-06-24T20:24:24.003Z,5.20
2023-06-24T20:34:45.196Z,5.00
2023-06-24T20:45:08.962Z,5.82
2023-06-24T20:55:30.813Z,5.40
2023-06-24T21:05:53.637Z,6.95
2023-06-24T21:16:15.116Z,6.95
2023-06-24T21:26:37.882Z,6.88
2023-06-24T21:36:59.666Z,7.53
2023-06-24T21:47:22.971Z,8.25
2023-06-24T21:57:45.197Z,8.23
2023-06-24T22:08:08.738Z,10.45
2023-06-24T22:18:30.885Z,13.90
2023-06-24T22:28:53.482Z,13.00
2023-06-24T22:39:15.881Z,13.80
2023-06-24T22:49:38.930Z,14.32
2023-06-24T23:00:00.384Z,19.67
2023-06-24T23:10:23.946Z,15.35
2023-06-24T23:20:45.670Z,13.02
2023-06-24T23:31:13.611Z,15.05
2023-06-24T23:41:35.646Z,15.32
2023-06-24T23:51:58.520Z,32.78
